createdAt,value
2023-03-23T16:02:53.947Z,21.00
2023-03-23T16:07:56.135Z,21.00
2023-03-23T16:12:58.176Z,21.20
2023-03-23T16:18:00.507Z,21.40
2023-03-23T16:23:02.522Z,21.40
2023-03-23T16:28:04.585Z,21.40
2023-03-23T16:33:06.870Z,21.50
2023-03-23T16:38:12.570Z,21.50
2023-03-23T16:43:14.754Z,21.60
2023-03-23T16:48:17.162Z,21.70
2023-03-23T16:53:19.218Z,21.80
2023-03-23T16:58:21.281Z,21.80
2023-03-23T17:03:23.284Z,21.70
2023-03-23T17:08:25.402Z,21.90
2023-03-23T17:13:27.990Z,21.90
2023-03-23T17:18:30.026Z,21.90
2023-03-23T17:23:32.110Z,21.90
2023-03-23T17:28:34.097Z,21.90
2023-03-23T17:33:36.077Z,21.80
2023-03-23T17:38:38.204Z,21.80
2023-03-23T17:43:41.059Z,21.80
2023-03-23T17:48:43.047Z,21.80
2023-03-23T17:53:45.175Z,21.80
2023-03-23T17:58:47.180Z,21.90
2023-03-23T18:08:51.655Z,22.10
2023-03-23T18:13:53.707Z,22.00
2023-03-23T18:18:56.412Z,22.10
2023-03-23T18:23:59.531Z,22.10
2023-03-23T18:34:05.365Z,22.10
2023-03-23T18:39:10.649Z,22.10
2023-03-23T18:44:12.838Z,22.10
2023-03-23T18:49:14.787Z,21.80
2023-03-23T18:54:17.602Z,22.20
2023-03-23T18:59:19.623Z,22.10
2023-03-23T19:04:22.430Z,22.10
2023-03-23T19:09:24.527Z,22.20
2023-03-23T19:14:26.848Z,22.30
2023-03-23T19:19:29.031Z,22.40
2023-03-23T19:24:31.035Z,22.50
2023-03-23T19:29:33.020Z,22.30
2023-03-23T19:34:35.137Z,22.40
2023-03-23T19:39:37.368Z,22.40
2023-03-23T19:44:39.577Z,22.40
2023-03-23T19:49:42.004Z,22.40
2023-03-23T19:54:44.162Z,22.30
2023-03-23T19:59:46.673Z,22.50
2023-03-23T20:04:49.645Z,22.60
2023-03-23T20:09:52.062Z,22.50
2023-03-23T20:14:54.084Z,22.70
2023-03-23T20:19:56.659Z,22.70
2023-03-23T20:25:00.553Z,22.80
2023-03-23T20:30:04.374Z,22.90
2023-03-23T20:40:13.050Z,23.00
2023-03-23T20:45:16.010Z,23.00
2023-03-23T20:50:18.557Z,23.30
2023-03-23T20:55:20.662Z,23.10
2023-03-23T21:00:23.206Z,23.20
2023-03-23T21:05:25.707Z,23.20
2023-03-23T21:10:28.407Z,23.30
2023-03-23T21:15:31.132Z,23.30
2023-03-23T21:20:33.546Z,23.40
2023-03-23T21:30:45.986Z,23.60
2023-03-23T21:35:48.285Z,23.60
2023-03-23T21:40:50.560Z,23.60
2023-03-23T21:51:04.114Z,23.70
2023-03-23T21:56:07.017Z,23.90
2023-03-23T22:01:10.290Z,23.90
2023-03-23T22:06:14.829Z,24.00
2023-03-23T22:11:19.461Z,24.00
2023-03-23T22:16:22.620Z,24.30
2023-03-23T22:21:28.422Z,24.40
2023-03-23T22:26:31.212Z,24.40
2023-03-23T22:31:34.530Z,24.60
2023-03-23T22:41:40.434Z,24.80
2023-03-23T22:51:45.500Z,25.10
2023-03-23T22:56:47.720Z,24.90
2023-03-23T23:01:49.877Z,25.00
2023-03-23T23:07:00.237Z,25.20
2023-03-23T23:12:09.525Z,25.20
2023-03-23T23:22:19.217Z,25.20
2023-03-23T23:27:21.722Z,25.30
2023-03-23T23:32:24.780Z,25.20
2023-03-23T23:37:27.252Z,25.30
2023-03-23T23:47:31.839Z,25.20
